createdAt,value
2017-08-25T00:00:26.474Z,15.08
2017-08-25T00:01:26.491Z,15.1
2017-08-25T00:02:26.885Z,15.13
2017-08-25T00:03:27.037Z,15.16
2017-08-25T00:04:27.346Z,15.19
2017-08-25T00:05:27.376Z,15.2
2017-08-25T00:06:27.414Z,15.26
2017-08-25T00:07:27.218Z,15.2
2017-08-25T00:08:27.867Z,15.31
2017-08-25T00:09:27.612Z,15.27
2017-08-25T00:10:27.607Z,15.26
2017-08-25T00:11:27.950Z,15.43
2017-08-25T00:12:28.323Z,15.33
2017-08-25T00:13:28.350Z,15.35
2017-08-25T00:14:28.373Z,15.34
2017-08-25T00:15:28.417Z,15.37
2017-08-25T00:16:28.155Z,15.44
2017-08-25T00:17:28.544Z,15.38
2017-08-25T00:18:38.003Z,15.38
2017-08-25T00:19:28.994Z,15.34
2017-08-25T00:20:28.421Z,15.35
2017-08-25T00:21:29.388Z,15.4
2017-08-25T00:22:29.148Z,15.4
2017-08-25T00:23:29.844Z,15.35
2017-08-25T00:24:29.549Z,15.41
2017-08-25T00:25:30.158Z,15.41
2017-08-25T00:26:30.192Z,15.43
2017-08-25T00:27:29.920Z,15.47
2017-08-25T00:28:30.609Z,15.44
2017-08-25T00:29:30.953Z,15.41
2017-08-25T00:30:30.695Z,15.4
2017-08-25T00:31:31.360Z,15.41
2017-08-25T00:33:05.483Z,15.4
2017-08-25T00:33:33.484Z,15.45
2017-08-25T00:34:33.823Z,15.4
2017-08-25T00:35:33.532Z,15.4
2017-08-25T00:36:34.215Z,15.4
2017-08-25T00:37:33.942Z,15.41
2017-08-25T00:38:34.259Z,15.43
2017-08-25T00:39:33.994Z,15.41
2017-08-25T00:40:34.623Z,15.49
2017-08-25T00:41:34.328Z,15.4
2017-08-25T00:42:34.364Z,15.47
2017-08-25T00:43:34.713Z,15.52
2017-08-25T00:44:34.760Z,15.58
2017-08-25T00:45:34.772Z,15.58
2017-08-25T00:46:34.491Z,15.6
2017-08-25T00:47:35.205Z,15.62
2017-08-25T00:48:35.220Z,15.58
2017-08-25T00:49:35.225Z,15.45
2017-08-25T00:50:34.913Z,15.55
2017-08-25T00:51:34.996Z,15.43
2017-08-25T00:52:35.320Z,15.41
2017-08-25T00:53:35.369Z,15.37
2017-08-25T00:54:34.750Z,15.45
2017-08-25T00:55:35.428Z,15.4
2017-08-25T00:56:34.811Z,15.4
2017-08-25T00:57:35.487Z,15.4
2017-08-25T00:58:35.503Z,15.33
2017-08-25T00:59:35.573Z,15.27
2017-08-25T01:00:35.592Z,15.22
2017-08-25T01:01:35.307Z,15.25
2017-08-25T01:02:35.653Z,15.22
2017-08-25T01:03:35.712Z,15.22
2017-08-25T01:04:35.698Z,15.22
2017-08-25T01:05:36.353Z,15.04
2017-08-25T01:06:36.071Z,15.07
2017-08-25T01:07:36.468Z,15.05
2017-08-25T01:08:36.128Z,15.02
2017-08-25T01:09:36.170Z,15.02
2017-08-25T01:10:36.543Z,14.94
2017-08-25T01:11:36.569Z,14.9
2017-08-25T01:12:36.594Z,14.97
2017-08-25T01:13:36.630Z,14.97
2017-08-25T01:14:36.664Z,14.9
2017-08-25T01:15:36.365Z,14.85
2017-08-25T01:16:36.662Z,14.9
2017-08-25T01:17:37.028Z,14.9
2017-08-25T01:18:36.784Z,14.83
2017-08-25T01:19:37.088Z,14.83
2017-08-25T01:20:37.122Z,14.79
2017-08-25T01:21:37.169Z,14.86
2017-08-25T01:22:37.206Z,14.85
2017-08-25T01:23:37.248Z,14.66
2017-08-25T01:24:37.263Z,14.77
2017-08-25T01:25:37.124Z,14.69
2017-08-25T01:26:37.330Z,14.82
2017-08-25T01:27:37.357Z,14.67
2017-08-25T01:28:37.450Z,14.82
2017-08-25T01:29:37.103Z,14.7
2017-08-25T01:30:37.555Z,14.82
2017-08-25T01:31:36.868Z,14.77
2017-08-25T01:32:37.821Z,14.75
2017-08-25T01:33:37.850Z,14.79
2017-08-25T01:34:37.895Z,14.79
2017-08-25T01:35:37.942Z,14.74
2017-08-25T01:36:37.945Z,14.77
2017-08-25T01:37:37.709Z,14.79
2017-08-25T01:38:38.012Z,14.7
2017-08-25T01:39:38.052Z,14.69
2017-08-25T01:40:37.751Z,14.66
2017-08-25T01:41:37.814Z,14.79
2017-08-25T01:42:38.468Z,14.71
2017-08-25T01:43:38.506Z,14.7
2017-08-25T01:44:38.579Z,14.7
2017-08-25T01:45:38.265Z,14.67
2017-08-25T01:46:38.612Z,14.64
2017-08-25T01:47:38.663Z,14.61
2017-08-25T01:48:38.653Z,14.67
2017-08-25T01:49:38.362Z,14.67
2017-08-25T01:50:38.449Z,14.57
2017-08-25T01:51:38.453Z,14.57
2017-08-25T01:52:38.479Z,14.57
2017-08-25T01:53:39.448Z,14.57
2017-08-25T01:54:39.474Z,14.52
2017-08-25T01:55:39.517Z,14.57
2017-08-25T01:56:39.544Z,14.51
2017-08-25T01:57:39.606Z,14.6
2017-08-25T01:58:39.621Z,14.57
2017-08-25T01:59:39.648Z,14.69
2017-08-25T02:00:39.680Z,14.63
2017-08-25T02:01:39.451Z,14.6
2017-08-25T02:02:39.782Z,14.53
2017-08-25T02:03:39.850Z,14.59
2017-08-25T02:04:39.811Z,14.49
2017-08-25T02:05:39.839Z,14.59
2017-08-25T02:06:39.877Z,14.6
2017-08-25T02:07:40.007Z,14.51
2017-08-25T02:08:39.950Z,14.56
2017-08-25T02:09:40.027Z,14.44
2017-08-25T02:10:39.682Z,14.52
2017-08-25T02:11:40.045Z,14.45
2017-08-25T02:12:40.071Z,14.45
2017-08-25T02:13:39.808Z,14.51
2017-08-25T02:14:40.146Z,14.45
2017-08-25T02:15:39.843Z,14.48
2017-08-25T02:16:40.586Z,14.46
2017-08-25T02:17:41.006Z,14.44
2017-08-25T02:18:40.675Z,14.42
2017-08-25T02:19:40.729Z,14.44
2017-08-25T02:20:40.738Z,14.45
2017-08-25T02:21:41.127Z,14.44
2017-08-25T02:22:41.433Z,14.51
2017-08-25T02:23:41.455Z,14.45
2017-08-25T02:24:40.871Z,14.33
2017-08-25T02:25:41.812Z,14.34
2017-08-25T02:26:41.552Z,14.33
2017-08-25T02:27:42.150Z,14.28
2017-08-25T02:28:42.512Z,14.38
2017-08-25T02:29:42.529Z,14.42
2017-08-25T02:30:42.551Z,14.41
2017-08-25T02:31:42.243Z,14.34
2017-08-25T02:32:42.289Z,14.36
2017-08-25T02:33:42.969Z,14.38
2017-08-25T02:34:42.984Z,14.31
2017-08-25T02:35:42.705Z,14.31
2017-08-25T02:36:43.059Z,14.3
2017-08-25T02:37:42.781Z,14.27
2017-08-25T02:38:42.832Z,14.31
2017-08-25T02:39:43.491Z,14.3
2017-08-25T02:40:43.544Z,14.27
2017-08-25T02:41:43.880Z,14.28
2017-08-25T02:42:43.912Z,14.23
2017-08-25T02:43:43.653Z,14.2
2017-08-25T02:44:44.286Z,14.24
2017-08-25T02:45:44.353Z,14.26
2017-08-25T02:46:44.057Z,14.2
2017-08-25T02:47:44.405Z,14.26
2017-08-25T02:48:44.779Z,14.27
2017-08-25T02:49:44.816Z,14.24
2017-08-25T02:50:44.854Z,14.31
2017-08-25T02:51:44.880Z,14.27
2017-08-25T02:52:44.579Z,14.24
2017-08-25T02:53:45.296Z,14.24
2017-08-25T02:54:45.290Z,14.23
2017-08-25T02:55:45.331Z,14.27
2017-08-25T02:56:45.073Z,14.3
2017-08-25T02:57:45.083Z,14.38
2017-08-25T02:58:45.089Z,14.31
2017-08-25T02:59:45.431Z,14.38
2017-08-25T03:00:45.767Z,14.42
2017-08-25T03:01:45.772Z,14.44
2017-08-25T03:02:46.096Z,14.48
2017-08-25T03:03:45.800Z,14.46
2017-08-25T03:04:46.164Z,14.46
2017-08-25T03:05:45.891Z,14.56
2017-08-25T03:06:45.921Z,14.53
2017-08-25T03:07:46.288Z,14.64
2017-08-25T03:08:46.300Z,14.6
2017-08-25T03:09:46.359Z,14.63
2017-08-25T03:10:46.466Z,14.67
2017-08-25T03:11:46.102Z,14.67
2017-08-25T03:12:46.743Z,14.67
2017-08-25T03:13:46.460Z,14.66
2017-08-25T03:14:46.793Z,14.67
2017-08-25T03:15:46.762Z,14.7
2017-08-25T03:16:46.861Z,14.6
2017-08-25T03:17:46.870Z,14.7
2017-08-25T03:18:47.232Z,14.75
2017-08-25T03:19:47.571Z,14.74
2017-08-25T03:20:47.597Z,14.7
2017-08-25T03:21:47.325Z,14.74
2017-08-25T03:22:47.665Z,14.66
2017-08-25T03:23:47.356Z,14.59
2017-08-25T03:24:47.729Z,14.64
2017-08-25T03:25:48.075Z,14.63
2017-08-25T03:26:48.398Z,14.64
2017-08-25T03:27:48.143Z,14.64
2017-08-25T03:28:48.783Z,14.67
2017-08-25T03:29:48.540Z,14.71
2017-08-25T03:30:49.560Z,14.77
2017-08-25T03:31:49.890Z,14.7
2017-08-25T03:32:49.917Z,14.7
2017-08-25T03:33:49.971Z,14.82
2017-08-25T03:34:49.982Z,14.66
2017-08-25T03:35:49.722Z,14.8
2017-08-25T03:36:50.356Z,14.83
2017-08-25T03:37:50.381Z,14.82
2017-08-25T03:38:50.410Z,14.94
2017-08-25T03:39:50.447Z,14.94
2017-08-25T03:40:50.484Z,14.89
2017-08-25T03:41:50.515Z,15
2017-08-25T03:42:50.557Z,14.98
2017-08-25T03:43:50.604Z,15.02
2017-08-25T03:44:50.612Z,14.94
2017-08-25T03:45:50.034Z,15
2017-08-25T03:46:50.376Z,15.02
2017-08-25T03:47:50.402Z,15.04
2017-08-25T03:48:51.074Z,15.04
2017-08-25T03:49:50.816Z,15.12
2017-08-25T03:50:51.141Z,15.15
2017-08-25T03:51:51.175Z,15.08
2017-08-25T03:52:51.200Z,15.15
2017-08-25T03:53:50.927Z,15.07
2017-08-25T03:54:51.237Z,15.1
2017-08-25T03:55:51.265Z,15.07
2017-08-25T03:56:51.282Z,15.04
2017-08-25T03:57:51.945Z,15.13
2017-08-25T03:58:51.981Z,15.19
2017-08-25T03:59:52.007Z,15.12
2017-08-25T04:00:52.391Z,15.15
2017-08-25T04:01:52.057Z,15.16
2017-08-25T04:02:51.775Z,15.19
2017-08-25T04:03:52.754Z,15.18
2017-08-25T04:04:52.479Z,15.2
2017-08-25T04:05:53.148Z,15.25
2017-08-25T04:06:52.870Z,15.23
2017-08-25T04:07:52.660Z,15.25
2017-08-25T04:08:53.318Z,15.25
2017-08-25T04:09:53.357Z,15.33
2017-08-25T04:10:53.389Z,15.2
2017-08-25T04:11:53.129Z,15.33
2017-08-25T04:12:52.804Z,15.34
2017-08-25T04:13:53.186Z,15.37
2017-08-25T04:14:53.214Z,15.35
2017-08-25T04:15:53.567Z,15.4
2017-08-25T04:16:53.604Z,15.35
2017-08-25T04:17:53.293Z,15.44
2017-08-25T04:18:53.921Z,15.4
2017-08-25T04:19:53.619Z,15.47
2017-08-25T04:20:53.997Z,15.49
2017-08-25T04:21:54.021Z,15.44
2017-08-25T04:22:53.744Z,15.45
2017-08-25T04:23:53.753Z,15.52
2017-08-25T04:24:53.823Z,15.56
2017-08-25T04:25:54.150Z,15.58
2017-08-25T04:26:53.974Z,15.43
2017-08-25T04:27:54.218Z,15.47
2017-08-25T04:28:54.260Z,15.56
2017-08-25T04:29:53.979Z,15.44
2017-08-25T04:30:54.313Z,15.51
2017-08-25T04:31:55.073Z,15.53
2017-08-25T04:32:55.002Z,15.55
2017-08-25T04:33:55.049Z,15.56
2017-08-25T04:34:55.075Z,15.56
2017-08-25T04:35:54.809Z,15.62
2017-08-25T04:36:54.945Z,15.62
2017-08-25T04:37:55.976Z,15.63
2017-08-25T04:38:55.668Z,15.62
2017-08-25T04:39:56.042Z,15.56
2017-08-25T04:40:56.085Z,15.68
2017-08-25T04:41:56.107Z,15.7
2017-08-25T04:42:55.832Z,15.71
2017-08-25T04:43:56.168Z,15.73
2017-08-25T04:44:55.898Z,15.7
2017-08-25T04:45:56.571Z,15.73
2017-08-25T04:46:56.302Z,15.7
2017-08-25T04:47:56.638Z,15.75
2017-08-25T04:48:56.654Z,15.8
2017-08-25T04:49:56.686Z,15.81
2017-08-25T04:50:57.022Z,15.88
2017-08-25T04:51:56.747Z,15.89
2017-08-25T04:52:57.104Z,15.89
2017-08-25T04:53:57.137Z,15.88
2017-08-25T04:54:57.168Z,15.91
2017-08-25T04:55:56.901Z,15.95
2017-08-25T04:56:56.907Z,15.92
2017-08-25T04:57:56.937Z,15.99
2017-08-25T04:58:56.655Z,16.02
2017-08-25T04:59:57.630Z,16.11
2017-08-25T05:00:57.670Z,16.16
2017-08-25T05:01:57.702Z,16.13
2017-08-25T05:02:57.732Z,16.16
2017-08-25T05:03:57.777Z,16.22
2017-08-25T05:04:57.799Z,16.14
2017-08-25T05:05:57.524Z,16.25
2017-08-25T05:06:57.558Z,16.26
2017-08-25T05:07:57.979Z,16.3
2017-08-25T05:08:57.935Z,16.32
2017-08-25T05:09:57.666Z,16.39
2017-08-25T05:10:58.007Z,16.34
2017-08-25T05:11:58.330Z,16.39
2017-08-25T05:12:58.046Z,16.44
2017-08-25T05:13:57.764Z,16.42
2017-08-25T05:14:58.455Z,16.47
2017-08-25T05:15:58.490Z,16.47
2017-08-25T05:16:58.204Z,16.57
2017-08-25T05:17:58.856Z,16.59
2017-08-25T05:18:58.875Z,16.62
2017-08-25T05:19:58.910Z,16.69
2017-08-25T05:20:58.942Z,16.65
2017-08-25T05:21:58.640Z,16.77
2017-08-25T05:22:58.993Z,16.84
2017-08-25T05:23:58.730Z,16.77
2017-08-25T05:24:59.413Z,16.87
2017-08-25T05:25:59.418Z,16.9
2017-08-25T05:26:59.474Z,16.88
2017-08-25T05:27:59.604Z,16.92
2017-08-25T05:28:59.985Z,16.97
2017-08-25T05:30:00.016Z,17.05
2017-08-25T05:31:00.391Z,17.03
2017-08-25T05:32:01.033Z,17.05
2017-08-25T05:33:01.065Z,17.1
2017-08-25T05:34:01.091Z,17.09
2017-08-25T05:35:01.473Z,17.18
2017-08-25T05:36:01.869Z,17.2
2017-08-25T05:37:01.596Z,17.24
2017-08-25T05:38:01.983Z,17.18
2017-08-25T05:39:01.637Z,17.27
2017-08-25T05:40:02.370Z,17.35
2017-08-25T05:41:02.393Z,17.42
2017-08-25T05:42:02.443Z,17.31
2017-08-25T05:43:02.471Z,17.52
2017-08-25T05:44:02.497Z,17.55
2017-08-25T05:45:02.542Z,17.74
2017-08-25T05:46:01.916Z,17.79
2017-08-25T05:47:02.674Z,17.87
2017-08-25T05:48:02.675Z,18.01
2017-08-25T05:49:02.065Z,18.08
2017-08-25T05:50:02.762Z,18.24
2017-08-25T05:51:02.787Z,18.39
2017-08-25T05:52:02.818Z,18.57
2017-08-25T05:53:03.175Z,18.57
2017-08-25T05:54:03.225Z,18.78
2017-08-25T05:55:02.935Z,18.86
2017-08-25T05:56:03.335Z,19.1
2017-08-25T05:57:03.325Z,19.3
2017-08-25T05:58:03.048Z,19.55
2017-08-25T05:59:03.102Z,19.6
2017-08-25T06:00:04.491Z,19.65
2017-08-25T06:01:03.891Z,19.68
2017-08-25T06:02:03.893Z,19.74
2017-08-25T06:03:03.892Z,19.82
2017-08-25T06:04:03.933Z,20.01
2017-08-25T06:05:04.010Z,20.23
2017-08-25T06:06:03.980Z,20.29
2017-08-25T06:07:04.016Z,20.38
2017-08-25T06:08:04.367Z,20.42
2017-08-25T06:09:04.088Z,20.48
2017-08-25T06:10:03.828Z,20.51
2017-08-25T06:11:04.150Z,20.68
2017-08-25T06:12:03.911Z,20.93
2017-08-25T06:13:04.641Z,21.18
2017-08-25T06:14:04.353Z,21.36
2017-08-25T06:15:04.688Z,21.43
2017-08-25T06:16:04.390Z,21.52
2017-08-25T06:17:04.418Z,21.43
2017-08-25T06:18:04.149Z,21.51
2017-08-25T06:19:05.132Z,21.45
2017-08-25T06:20:05.158Z,21.37
2017-08-25T06:21:05.202Z,21.36
2017-08-25T06:22:04.900Z,21.36
2017-08-25T06:23:05.262Z,21.21
2017-08-25T06:24:05.318Z,21.18
2017-08-25T06:25:05.012Z,21.11
2017-08-25T06:26:05.385Z,21.01
2017-08-25T06:27:05.418Z,20.91
2017-08-25T06:28:05.469Z,20.75
2017-08-25T06:29:05.521Z,20.75
2017-08-25T06:30:04.989Z,20.58
2017-08-25T06:31:05.996Z,20.51
2017-08-25T06:32:06.022Z,20.42
2017-08-25T06:33:05.731Z,20.48
2017-08-25T06:34:05.755Z,20.42
2017-08-25T06:35:06.469Z,20.35
2017-08-25T06:36:06.494Z,20.38
2017-08-25T06:37:06.506Z,20.41
2017-08-25T06:38:06.241Z,20.4
2017-08-25T06:39:06.918Z,20.44
2017-08-25T06:40:07.013Z,20.44
2017-08-25T06:41:06.986Z,20.54
2017-08-25T06:42:07.032Z,20.57
2017-08-25T06:43:06.752Z,20.71
2017-08-25T06:44:07.105Z,20.78
2017-08-25T06:45:07.208Z,20.88
2017-08-25T06:46:06.828Z,20.96
2017-08-25T06:47:06.888Z,21.06
2017-08-25T06:48:07.236Z,21.09
2017-08-25T06:49:06.970Z,21.13
2017-08-25T06:50:07.090Z,21.23
2017-08-25T06:51:07.787Z,21.3
2017-08-25T06:52:07.488Z,21.25
2017-08-25T06:53:08.160Z,21.33
2017-08-25T06:54:08.206Z,21.49
2017-08-25T06:55:08.204Z,21.61
2017-08-25T06:56:08.912Z,21.66
2017-08-25T06:57:08.932Z,21.71
2017-08-25T06:58:08.691Z,21.74
2017-08-25T06:59:09.069Z,21.71
2017-08-25T07:00:09.656Z,21.77
2017-08-25T07:01:09.068Z,21.73
2017-08-25T07:02:09.465Z,21.76
2017-08-25T07:03:09.506Z,21.73
2017-08-25T07:04:09.220Z,21.68
2017-08-25T07:05:09.621Z,21.77
2017-08-25T07:06:09.289Z,21.77
2017-08-25T07:07:09.977Z,21.73
2017-08-25T07:08:10.218Z,21.89
2017-08-25T07:09:09.731Z,21.89
2017-08-25T07:10:09.826Z,21.89
2017-08-25T07:11:10.475Z,21.92
2017-08-25T07:12:10.491Z,21.86
2017-08-25T07:13:10.543Z,21.73
2017-08-25T07:14:10.553Z,21.71
2017-08-25T07:15:10.611Z,21.66
2017-08-25T07:16:10.640Z,21.68
2017-08-25T07:17:10.678Z,21.74
2017-08-25T07:18:10.720Z,21.73
2017-08-25T07:19:10.757Z,21.97
2017-08-25T07:20:10.471Z,22.09
2017-08-25T07:21:10.492Z,22.26
2017-08-25T07:22:10.857Z,22.3
2017-08-25T07:23:10.258Z,22.33
2017-08-25T07:24:10.607Z,22.48
2017-08-25T07:25:10.671Z,22.64
2017-08-25T07:26:11.027Z,22.78
2017-08-25T07:27:11.402Z,23.06
2017-08-25T07:28:11.420Z,23.37
2017-08-25T07:29:11.466Z,23.62
2017-08-25T07:32:32.201Z,24.09
2017-08-25T07:33:32.157Z,24.07
2017-08-25T07:34:32.209Z,24.03
2017-08-25T07:35:31.565Z,24.07
2017-08-25T07:36:31.655Z,23.97
2017-08-25T07:37:32.570Z,24.07
2017-08-25T07:38:32.295Z,24.19
2017-08-25T07:39:32.997Z,24.55
2017-08-25T07:40:33.329Z,24.85
2017-08-25T07:41:33.028Z,24.89
2017-08-25T07:42:33.406Z,24.93
2017-08-25T07:43:33.444Z,25.11
2017-08-25T07:44:33.158Z,25.34
2017-08-25T07:45:33.761Z,25.57
2017-08-25T07:46:33.493Z,25.64
2017-08-25T07:47:33.829Z,25.69
2017-08-25T07:48:34.123Z,25.89
2017-08-25T07:49:34.457Z,25.88
2017-08-25T07:50:34.808Z,25.93
2017-08-25T07:51:35.115Z,26.22
2017-08-25T07:52:34.824Z,26.38
2017-08-25T07:53:35.195Z,26.27
2017-08-25T07:54:34.940Z,26.32
2017-08-25T07:55:34.985Z,26.72
2017-08-25T07:56:35.310Z,27.52
2017-08-25T07:57:35.346Z,28.2
2017-08-25T07:58:35.420Z,28.7
2017-08-25T07:59:35.436Z,29.02
2017-08-25T08:00:35.803Z,29.17
2017-08-25T08:01:35.848Z,29.08
2017-08-25T08:02:35.604Z,29.11
2017-08-25T08:03:35.601Z,29.66
2017-08-25T08:04:36.004Z,30.09
2017-08-25T08:05:35.981Z,30.63
2017-08-25T08:06:35.751Z,31.31
2017-08-25T08:07:36.151Z,31.94
2017-08-25T08:08:36.600Z,32.56
2017-08-25T08:09:36.596Z,33.06
2017-08-25T08:10:36.619Z,33.62
2017-08-25T08:11:37.034Z,34.05
2017-08-25T08:12:37.405Z,34.39
2017-08-25T08:13:37.116Z,34.56
2017-08-25T08:14:37.111Z,34.94
2017-08-25T08:15:37.196Z,35.45
2017-08-25T08:16:37.543Z,35.79
2017-08-25T08:17:37.631Z,36.12
2017-08-25T08:18:37.316Z,36.18
2017-08-25T08:19:37.698Z,36.18
2017-08-25T08:20:37.389Z,35.96
2017-08-25T08:21:37.748Z,35.8
2017-08-25T08:22:37.783Z,35.61
2017-08-25T08:23:37.837Z,35.49
2017-08-25T08:24:37.854Z,35.49
2017-08-25T08:25:37.567Z,35.35
2017-08-25T08:26:37.950Z,35.58
2017-08-25T08:27:38.356Z,35.28
2017-08-25T08:28:37.758Z,34.51
2017-08-25T08:29:38.457Z,33.74
2017-08-25T08:30:38.517Z,33.53
2017-08-25T08:31:38.210Z,33.37
2017-08-25T08:32:38.570Z,33.69
2017-08-25T08:33:38.637Z,34.05
2017-08-25T08:34:38.682Z,34.55
2017-08-25T08:35:39.412Z,34.81
2017-08-25T08:36:39.147Z,34.55
2017-08-25T08:37:38.851Z,34.36
2017-08-25T08:38:39.557Z,34.48
2017-08-25T08:39:39.263Z,34.75
2017-08-25T08:40:39.340Z,34.84
2017-08-25T08:41:39.070Z,34.86
2017-08-25T08:42:39.421Z,34.71
2017-08-25T08:43:40.167Z,34.59
2017-08-25T08:44:39.884Z,34.64
2017-08-25T08:45:39.915Z,34.91
2017-08-25T08:46:40.887Z,35.39
2017-08-25T08:47:41.264Z,35.68
2017-08-25T08:48:40.955Z,35.76
2017-08-25T08:49:41.365Z,36.05
2017-08-25T08:50:41.454Z,36.19
2017-08-25T08:51:41.475Z,36.21
2017-08-25T08:52:42.157Z,35.8
2017-08-25T08:53:41.588Z,35.33
2017-08-25T08:54:42.234Z,34.49
2017-08-25T08:55:42.319Z,33.71
2017-08-25T08:56:42.350Z,32.72
2017-08-25T08:57:42.123Z,31.74
2017-08-25T08:58:42.157Z,31.18
2017-08-25T08:59:42.229Z,30.86
2017-08-25T09:00:42.226Z,30.32
2017-08-25T09:01:42.886Z,30.14
2017-08-25T09:02:42.930Z,30.4
2017-08-25T09:03:43.022Z,30.57
2017-08-25T09:04:42.728Z,30.31
2017-08-25T09:05:43.396Z,29.81
2017-08-25T09:06:43.429Z,29.54
2017-08-25T09:07:43.483Z,29.23
2017-08-25T09:08:43.565Z,28.92
2017-08-25T09:09:43.566Z,28.72
2017-08-25T09:10:43.613Z,28.72
2017-08-25T09:11:43.635Z,29.08
2017-08-25T09:12:43.661Z,29.32
2017-08-25T09:13:43.400Z,29.43
2017-08-25T09:14:43.728Z,30.03
2017-08-25T09:15:44.456Z,31.08
2017-08-25T09:16:44.182Z,31.95
2017-08-25T09:17:44.230Z,32.45
2017-08-25T09:18:43.969Z,32.8
2017-08-25T09:19:44.297Z,32.74
2017-08-25T09:20:44.693Z,32.47
2017-08-25T09:21:44.432Z,32.16
2017-08-25T09:22:44.770Z,31.78
2017-08-25T09:23:44.526Z,31.78
2017-08-25T09:24:44.547Z,31.6
2017-08-25T09:25:44.619Z,31.33
2017-08-25T09:26:44.994Z,31.04
2017-08-25T09:27:45.054Z,30.67
2017-08-25T09:28:45.103Z,30.51
2017-08-25T09:29:45.453Z,30.44
2017-08-25T09:30:45.160Z,30.63
2017-08-25T09:31:45.858Z,30.86
2017-08-25T09:32:45.872Z,31
2017-08-25T09:33:45.630Z,31.53
2017-08-25T09:34:45.977Z,32.19
2017-08-25T09:35:46.071Z,32.72
2017-08-25T09:36:46.130Z,33.09
2017-08-25T09:37:46.509Z,33.68
2017-08-25T09:38:46.835Z,34.22
2017-08-25T09:39:47.225Z,34.46
2017-08-25T09:40:47.253Z,34.17
2017-08-25T09:41:47.333Z,33.73
2017-08-25T09:42:47.031Z,33.24
2017-08-25T09:43:47.423Z,32.62
2017-08-25T09:44:48.132Z,32.03
2017-08-25T09:45:47.847Z,31.47
2017-08-25T09:46:48.557Z,31.03
2017-08-25T09:47:48.616Z,31.07
2017-08-25T09:48:48.938Z,30.88
2017-08-25T09:49:48.347Z,30.52
2017-08-25T09:50:49.030Z,30.26
2017-08-25T09:51:48.773Z,30.42
2017-08-25T09:52:48.817Z,30.32
2017-08-25T09:53:48.858Z,29.91
2017-08-25T09:54:49.229Z,29.43
2017-08-25T09:55:48.599Z,28.85
2017-08-25T09:56:49.296Z,28.35
2017-08-25T09:57:49.362Z,27.74
2017-08-25T09:58:49.057Z,27.18
2017-08-25T09:59:49.088Z,26.9
2017-08-25T10:00:49.440Z,26.5
2017-08-25T10:01:48.897Z,26.23
2017-08-25T10:02:49.838Z,26.12
2017-08-25T10:03:49.591Z,25.99
2017-08-25T10:04:49.623Z,26.54
2017-08-25T10:05:49.997Z,27.42
2017-08-25T10:06:49.717Z,28.65
2017-08-25T10:07:50.395Z,30.04
2017-08-25T10:08:49.764Z,31.07
2017-08-25T10:09:50.186Z,31.59
2017-08-25T10:10:50.186Z,31.67
2017-08-25T10:11:49.935Z,32.46
2017-08-25T10:12:49.928Z,33.66
2017-08-25T10:13:50.629Z,34.69
2017-08-25T10:14:50.668Z,35.55
2017-08-25T10:15:50.408Z,36.34
2017-08-25T10:16:51.064Z,37.17
2017-08-25T10:17:50.817Z,37.72
2017-08-25T10:18:50.488Z,38.17
2017-08-25T10:19:50.871Z,38.4
2017-08-25T10:20:51.241Z,38.66
2017-08-25T10:21:50.960Z,38.85
2017-08-25T10:22:51.297Z,38.78
2017-08-25T10:23:51.029Z,38.9
2017-08-25T10:24:51.393Z,38.56
2017-08-25T10:25:51.158Z,38.42
2017-08-25T10:26:51.454Z,38.35
2017-08-25T10:27:51.258Z,37.72
2017-08-25T10:28:51.899Z,36.59
2017-08-25T10:29:51.929Z,35.33
2017-08-25T10:30:51.367Z,33.9
2017-08-25T10:31:52.074Z,32.8
2017-08-25T10:32:51.772Z,32.05
2017-08-25T10:33:51.795Z,31.67
2017-08-25T10:34:52.100Z,31.26
2017-08-25T10:35:52.799Z,30.57
2017-08-25T10:36:52.828Z,30.13
2017-08-25T10:37:52.893Z,30
2017-08-25T10:38:53.625Z,30.56
2017-08-25T10:39:53.647Z,31.06
2017-08-25T10:40:53.675Z,31.65
2017-08-25T10:41:54.012Z,32.46
2017-08-25T10:42:54.407Z,33.28
2017-08-25T10:43:54.140Z,33.95
2017-08-25T10:44:54.486Z,34.56
2017-08-25T10:45:54.506Z,35.27
2017-08-25T10:46:54.259Z,36.05
2017-08-25T10:47:54.313Z,36.78
2017-08-25T10:48:54.965Z,37.27
2017-08-25T10:49:54.722Z,37.65
2017-08-25T10:50:55.091Z,37.65
2017-08-25T10:51:54.481Z,37.64
2017-08-25T10:52:54.848Z,37.42
2017-08-25T10:53:55.238Z,37.23
2017-08-25T10:54:55.366Z,37.05
2017-08-25T10:55:55.368Z,36.63
2017-08-25T10:56:55.718Z,36.28
2017-08-25T10:57:55.447Z,35.82
2017-08-25T10:58:56.146Z,35.45
2017-08-25T10:59:55.855Z,34.66
2017-08-25T11:00:55.875Z,33.63
2017-08-25T11:01:55.974Z,32.81
2017-08-25T11:02:56.377Z,32.1
2017-08-25T11:03:56.705Z,31.45
2017-08-25T11:04:57.044Z,31.23
2017-08-25T11:05:56.796Z,31.67
2017-08-25T11:06:57.523Z,32.32
2017-08-25T11:07:57.573Z,32.83
2017-08-25T11:08:57.571Z,32.99
2017-08-25T11:09:57.304Z,33.55
2017-08-25T11:10:57.345Z,34.49
2017-08-25T11:11:57.037Z,35.55
2017-08-25T11:12:57.711Z,36.68
2017-08-25T11:13:57.439Z,37.66
2017-08-25T11:14:57.467Z,38.02
2017-08-25T11:15:57.842Z,37.86
2017-08-25T11:16:57.245Z,37.36
2017-08-25T11:17:57.937Z,36.73
2017-08-25T11:18:57.609Z,36.3
2017-08-25T11:19:57.711Z,35.57
2017-08-25T11:20:58.386Z,34.56
2017-08-25T11:21:57.777Z,33.58
2017-08-25T11:22:58.477Z,32.5
2017-08-25T11:23:58.154Z,31.59
2017-08-25T11:24:58.883Z,30.64
2017-08-25T11:25:58.314Z,30.42
2017-08-25T11:26:58.974Z,30.71
2017-08-25T11:27:58.391Z,31.44
2017-08-25T11:28:58.772Z,31.94
2017-08-25T11:29:59.522Z,31.82
2017-08-25T11:30:58.888Z,32.09
2017-08-25T11:31:59.281Z,32.86
2017-08-25T11:32:59.282Z,32.74
2017-08-25T11:33:59.350Z,32.2
2017-08-25T11:34:59.369Z,31.65
2017-08-25T11:35:59.544Z,30.84
2017-08-25T11:37:00.292Z,30.26
2017-08-25T11:38:00.305Z,29.75
2017-08-25T11:39:00.015Z,29.15
2017-08-25T11:40:00.040Z,28.55
2017-08-25T11:41:00.121Z,28.08
2017-08-25T11:42:00.520Z,27.52
2017-08-25T11:43:00.844Z,27.11
2017-08-25T11:44:00.876Z,26.89
2017-08-25T11:45:01.554Z,26.52
2017-08-25T11:46:00.972Z,26.72
2017-08-25T11:47:01.653Z,26.99
2017-08-25T11:48:01.691Z,27.28
2017-08-25T11:49:01.419Z,27.55
2017-08-25T11:50:01.446Z,27.72
2017-08-25T11:51:01.808Z,27.87
2017-08-25T11:52:01.854Z,27.93
2017-08-25T11:53:01.234Z,28.05
2017-08-25T11:54:01.935Z,28.08
2017-08-25T11:55:01.952Z,28.12
2017-08-25T11:56:02.074Z,28.27
2017-08-25T11:57:02.122Z,28.33
2017-08-25T11:58:02.474Z,28.3
2017-08-25T11:59:02.519Z,28.21
2017-08-25T12:00:02.569Z,28.05
2017-08-25T12:01:02.289Z,28.01
2017-08-25T12:02:02.619Z,27.9
2017-08-25T12:03:03.013Z,27.83
2017-08-25T12:04:03.776Z,27.81
2017-08-25T12:05:03.440Z,27.53
2017-08-25T12:06:04.141Z,27.49
2017-08-25T12:07:03.513Z,27.28
2017-08-25T12:08:04.255Z,27.01
2017-08-25T12:09:03.984Z,26.99
2017-08-25T12:10:04.655Z,27.04
2017-08-25T12:11:04.343Z,27.09
2017-08-25T12:12:04.403Z,27.3
2017-08-25T12:13:04.116Z,27.57
2017-08-25T12:14:05.865Z,27.59
2017-08-25T12:15:04.980Z,27.52
2017-08-25T12:16:05.018Z,27.31
2017-08-25T12:17:05.052Z,26.97
2017-08-25T12:18:05.742Z,26.69
2017-08-25T12:19:05.491Z,26.34
2017-08-25T12:20:05.338Z,26.15
2017-08-25T12:21:05.597Z,25.86
2017-08-25T12:22:05.293Z,25.78
2017-08-25T12:23:05.600Z,25.7
2017-08-25T12:24:05.628Z,25.59
2017-08-25T12:25:06.028Z,25.62
2017-08-25T12:26:06.736Z,25.44
2017-08-25T12:27:06.723Z,25.49
2017-08-25T12:28:06.775Z,25.42
2017-08-25T12:29:06.835Z,25.33
2017-08-25T12:30:06.948Z,25.23
2017-08-25T12:31:06.917Z,25.22
2017-08-25T12:32:06.655Z,25.26
2017-08-25T12:33:07.319Z,25.17
2017-08-25T12:34:07.388Z,25.23
2017-08-25T12:35:07.448Z,25.26
2017-08-25T12:36:07.445Z,25.37
2017-08-25T12:37:07.129Z,25.39
2017-08-25T12:38:07.528Z,25.56
2017-08-25T12:39:07.541Z,25.6
2017-08-25T12:40:07.636Z,25.45
2017-08-25T12:41:07.630Z,25.34
2017-08-25T12:42:07.759Z,25.05
2017-08-25T12:43:08.179Z,24.97
2017-08-25T12:44:07.913Z,24.87
2017-08-25T12:45:07.879Z,24.86
2017-08-25T12:46:08.216Z,24.82
2017-08-25T12:47:07.942Z,24.85
2017-08-25T12:48:08.319Z,24.89
2017-08-25T12:49:08.695Z,24.9
2017-08-25T12:50:08.738Z,24.9
2017-08-25T12:51:09.125Z,25.02
2017-08-25T12:52:08.851Z,25.05
2017-08-25T12:53:09.155Z,25.07
2017-08-25T12:54:08.874Z,25.07
2017-08-25T12:55:09.609Z,24.97
2017-08-25T12:56:09.329Z,24.96
2017-08-25T12:57:08.962Z,24.92
2017-08-25T12:58:08.818Z,24.82
2017-08-25T12:59:08.950Z,24.67